createdAt,value
2022-09-27T00:01:18.343Z,10.02
2022-09-27T00:03:47.039Z,9.98
2022-09-27T00:06:19.956Z,9.90
2022-09-27T00:08:48.569Z,9.84
2022-09-27T00:11:24.411Z,9.81
2022-09-27T00:13:55.027Z,9.72
2022-09-27T00:16:24.172Z,9.67
2022-09-27T00:18:53.198Z,9.61
2022-09-27T00:21:21.796Z,9.53
2022-09-27T00:23:50.026Z,9.49
2022-09-27T00:26:18.813Z,9.44
2022-09-27T00:28:47.146Z,9.36
2022-09-27T00:31:23.977Z,9.40
2022-09-27T00:33:55.116Z,9.41
2022-09-27T00:36:25.817Z,9.40
2022-09-27T00:38:56.416Z,9.34
2022-09-27T00:41:27.962Z,9.29
2022-09-27T00:43:59.868Z,9.28
2022-09-27T00:46:35.368Z,9.26
2022-09-27T00:49:15.472Z,9.30
2022-09-27T00:51:46.857Z,9.27
2022-09-27T00:54:19.685Z,9.30
2022-09-27T00:56:50.311Z,9.30
2022-09-27T00:59:26.711Z,9.32
2022-09-27T01:01:57.071Z,9.30
2022-09-27T01:04:31.682Z,9.30
2022-09-27T01:07:00.553Z,9.30
2022-09-27T01:09:30.191Z,9.36
2022-09-27T01:12:12.235Z,9.33
2022-09-27T01:15:05.626Z,9.35
2022-09-27T01:17:50.449Z,9.34
2022-09-27T01:21:13.883Z,9.35
2022-09-27T01:24:20.945Z,9.28
2022-09-27T01:27:21.887Z,9.24
2022-09-27T01:30:26.275Z,9.20
2022-09-27T01:33:15.105Z,9.15
2022-09-27T01:36:01.887Z,9.22
2022-09-27T01:38:44.503Z,9.19
2022-09-27T01:41:30.546Z,9.14
2022-09-27T01:44:14.359Z,9.13
2022-09-27T01:46:54.227Z,9.06
2022-09-27T01:49:43.769Z,9.05
2022-09-27T01:52:15.565Z,8.98
2022-09-27T01:54:47.887Z,8.98
2022-09-27T01:57:23.488Z,8.98
2022-09-27T02:00:00.132Z,8.98
2022-09-27T02:02:50.236Z,8.98
2022-09-27T02:05:56.458Z,8.94
2022-09-27T02:08:50.050Z,8.91
2022-09-27T02:11:44.529Z,8.89
2022-09-27T02:14:20.854Z,8.83
2022-09-27T02:16:55.684Z,8.85
2022-09-27T02:19:42.234Z,8.94
2022-09-27T02:22:21.758Z,8.90
2022-09-27T02:24:58.221Z,8.84
2022-09-27T02:27:37.290Z,8.83
2022-09-27T02:30:15.788Z,8.76
2022-09-27T02:32:47.212Z,8.73
2022-09-27T02:35:23.543Z,8.71
2022-09-27T02:37:54.845Z,8.66
2022-09-27T02:40:24.881Z,8.66
2022-09-27T02:42:54.006Z,8.69
2022-09-27T02:45:23.029Z,8.66
2022-09-27T02:48:03.688Z,8.67
2022-09-27T02:50:52.836Z,8.68
2022-09-27T02:54:01.679Z,8.62
2022-09-27T02:57:04.037Z,8.57
2022-09-27T03:00:10.079Z,8.52
2022-09-27T03:03:02.841Z,8.52
2022-09-27T03:06:06.510Z,8.46
2022-09-27T03:08:35.628Z,8.46
2022-09-27T03:11:04.351Z,8.47
2022-09-27T03:13:45.624Z,8.46
2022-09-27T03:16:23.202Z,8.37
2022-09-27T03:19:05.609Z,8.39
2022-09-27T03:21:55.667Z,8.37
2022-09-27T03:24:25.431Z,8.37
2022-09-27T03:26:53.979Z,8.35
2022-09-27T03:29:22.187Z,8.38
2022-09-27T03:31:56.962Z,8.38
2022-09-27T03:34:48.234Z,8.38
2022-09-27T03:37:18.395Z,8.37
2022-09-27T03:39:46.707Z,8.37
2022-09-27T03:42:15.096Z,8.40
2022-09-27T03:44:48.272Z,8.38
2022-09-27T03:47:16.618Z,8.40
2022-09-27T03:49:46.726Z,8.37
2022-09-27T03:52:15.436Z,8.43
2022-09-27T03:54:46.547Z,8.43
2022-09-27T03:57:15.122Z,8.50
2022-09-27T03:59:43.930Z,8.48
2022-09-27T04:02:41.498Z,8.47
2022-09-27T04:05:25.147Z,8.42
2022-09-27T04:08:06.455Z,8.38
2022-09-27T04:10:36.768Z,8.43
2022-09-27T04:13:05.440Z,8.48
2022-09-27T04:15:39.486Z,8.52
2022-09-27T04:18:26.280Z,8.54
2022-09-27T04:21:13.660Z,8.56
2022-09-27T04:23:49.192Z,8.57
2022-09-27T04:26:21.204Z,8.59
2022-09-27T04:28:54.666Z,8.65
2022-09-27T04:31:24.097Z,8.63
2022-09-27T04:34:45.977Z,8.66
2022-09-27T04:37:20.298Z,8.69
2022-09-27T04:39:50.990Z,8.70
2022-09-27T04:42:20.715Z,8.78
2022-09-27T04:44:49.023Z,8.75
2022-09-27T04:47:18.408Z,8.72
2022-09-27T04:49:46.810Z,8.71
2022-09-27T04:52:15.607Z,8.68
2022-09-27T04:54:44.450Z,8.63
2022-09-27T04:57:14.645Z,8.58
2022-09-27T04:59:45.565Z,8.60
2022-09-27T05:02:15.138Z,8.63
2022-09-27T05:05:18.915Z,8.65
2022-09-27T05:07:47.332Z,8.65
2022-09-27T05:10:27.254Z,8.59
2022-09-27T05:12:55.491Z,8.57
2022-09-27T05:15:25.165Z,8.56
2022-09-27T05:18:22.987Z,8.61
2022-09-27T05:21:26.206Z,8.65
2022-09-27T05:23:54.875Z,8.63
2022-09-27T05:26:23.623Z,8.54
2022-09-27T05:28:52.770Z,8.45
2022-09-27T05:31:22.503Z,8.40
2022-09-27T05:33:51.505Z,8.35
2022-09-27T05:36:38.798Z,8.35
2022-09-27T05:39:08.087Z,8.35
2022-09-27T05:41:37.118Z,8.32
2022-09-27T05:44:06.014Z,8.24
2022-09-27T05:46:39.148Z,8.23
2022-09-27T05:49:07.962Z,8.19
2022-09-27T05:51:36.512Z,8.20
2022-09-27T05:54:04.985Z,8.23
2022-09-27T05:56:33.327Z,8.26
2022-09-27T05:59:41.172Z,8.29
2022-09-27T06:02:29.954Z,8.27
2022-09-27T06:05:10.945Z,8.30
2022-09-27T06:07:40.689Z,8.32
2022-09-27T06:10:16.019Z,8.32
2022-09-27T06:12:44.364Z,8.32
2022-09-27T06:15:27.292Z,8.23
2022-09-27T06:17:57.234Z,8.43
2022-09-27T06:20:26.901Z,8.79
2022-09-27T06:22:56.221Z,8.66
2022-09-27T06:25:24.746Z,8.50
2022-09-27T06:28:04.409Z,8.44
2022-09-27T06:30:41.723Z,8.38
2022-09-27T06:33:25.561Z,8.45
2022-09-27T06:35:55.660Z,8.49
2022-09-27T06:38:25.939Z,8.59
2022-09-27T06:41:09.266Z,9.45
2022-09-27T06:44:06.840Z,9.29
2022-09-27T06:46:57.603Z,8.82
2022-09-27T06:49:46.121Z,8.77
2022-09-27T06:52:17.178Z,8.72
2022-09-27T06:54:45.839Z,8.67
2022-09-27T06:57:35.093Z,8.78
2022-09-27T07:00:22.131Z,8.87
2022-09-27T07:03:20.415Z,9.07
2022-09-27T07:06:20.338Z,9.81
2022-09-27T07:08:53.682Z,9.39
2022-09-27T07:11:26.037Z,9.12
2022-09-27T07:13:56.519Z,9.22
2022-09-27T07:16:25.248Z,9.23
2022-09-27T07:18:53.527Z,9.30
2022-09-27T07:21:23.172Z,9.45
2022-09-27T07:23:51.915Z,9.48
2022-09-27T07:26:20.534Z,9.54
2022-09-27T07:28:49.351Z,9.39
2022-09-27T07:31:18.931Z,9.34
2022-09-27T07:33:47.531Z,9.21
2022-09-27T07:36:15.962Z,9.28
2022-09-27T07:38:47.943Z,9.14
2022-09-27T07:41:19.809Z,9.10
2022-09-27T07:43:50.112Z,9.12
2022-09-27T07:46:20.330Z,9.08
2022-09-27T07:49:09.766Z,9.17
2022-09-27T07:52:07.385Z,9.36
2022-09-27T07:54:55.862Z,9.26
2022-09-27T07:57:32.546Z,9.29
2022-09-27T08:00:03.439Z,9.53
2022-09-27T08:02:42.088Z,9.57
2022-09-27T08:05:12.862Z,9.83
2022-09-27T08:07:42.428Z,9.72
2022-09-27T08:10:12.198Z,9.59
2022-09-27T08:12:41.077Z,9.80
2022-09-27T08:15:11.055Z,9.76
2022-09-27T08:17:39.446Z,9.63
2022-09-27T08:20:18.801Z,9.59
2022-09-27T08:23:08.009Z,9.62
2022-09-27T08:25:45.450Z,9.43
2022-09-27T08:28:33.766Z,9.48
2022-09-27T08:31:13.223Z,9.49
2022-09-27T08:33:42.930Z,9.75
2022-09-27T08:36:13.212Z,9.78
2022-09-27T08:38:42.275Z,9.98
2022-09-27T08:41:29.111Z,10.55
2022-09-27T08:44:15.641Z,10.45
2022-09-27T08:47:09.672Z,10.66
2022-09-27T08:49:41.654Z,10.79
2022-09-27T08:52:20.930Z,10.74
2022-09-27T08:54:51.640Z,10.60
2022-09-27T08:57:24.796Z,10.50
2022-09-27T09:00:03.200Z,10.55
2022-09-27T09:02:32.172Z,10.66
2022-09-27T09:05:09.416Z,10.56
2022-09-27T09:08:22.336Z,10.88
2022-09-27T09:11:32.550Z,10.45
2022-09-27T09:14:44.280Z,10.50
2022-09-27T09:17:28.052Z,11.18
2022-09-27T09:20:26.567Z,11.12
2022-09-27T09:23:26.923Z,11.87
2022-09-27T09:26:10.305Z,12.18
2022-09-27T09:29:01.912Z,11.13
2022-09-27T09:31:43.911Z,10.49
2022-09-27T09:34:20.726Z,10.38
2022-09-27T09:36:56.939Z,10.25
2022-09-27T09:39:29.885Z,10.40
2022-09-27T09:42:11.390Z,10.44
2022-09-27T09:44:48.856Z,10.57
2022-09-27T09:47:31.870Z,10.79
2022-09-27T09:50:05.853Z,11.22
2022-09-27T09:52:46.110Z,11.49
2022-09-27T09:55:21.173Z,11.55
2022-09-27T09:58:10.116Z,11.23
2022-09-27T10:00:48.797Z,11.02
2022-09-27T10:03:19.645Z,11.08
2022-09-27T10:05:48.788Z,11.21
2022-09-27T10:08:22.380Z,10.38
2022-09-27T10:10:59.539Z,9.85
2022-09-27T10:13:50.830Z,9.71
2022-09-27T10:16:22.274Z,9.94
2022-09-27T10:19:01.209Z,9.99
2022-09-27T10:21:31.170Z,10.54
2022-09-27T10:24:14.982Z,11.24
2022-09-27T10:27:05.857Z,11.39
2022-09-27T10:29:39.767Z,11.23
2022-09-27T10:32:27.413Z,10.97
2022-09-27T10:35:36.951Z,11.07
2022-09-27T10:38:30.570Z,10.45
2022-09-27T10:41:25.220Z,10.68
2022-09-27T10:44:21.580Z,11.07
2022-09-27T10:46:58.903Z,10.84
2022-09-27T10:50:08.032Z,10.40
2022-09-27T10:53:08.723Z,10.64
2022-09-27T10:55:39.904Z,11.63
2022-09-27T10:58:20.077Z,10.64
2022-09-27T11:00:59.138Z,12.07
2022-09-27T11:03:29.105Z,13.32
2022-09-27T11:06:00.243Z,12.52
2022-09-27T11:08:37.073Z,10.94
2022-09-27T11:11:21.767Z,11.09
2022-09-27T11:14:04.287Z,11.52
2022-09-27T11:16:49.769Z,13.15
2022-09-27T11:19:37.897Z,13.85
2022-09-27T11:22:24.886Z,13.99
2022-09-27T11:25:16.089Z,13.13
2022-09-27T11:28:00.492Z,13.44
2022-09-27T11:30:47.048Z,13.88
2022-09-27T11:34:03.104Z,12.11
2022-09-27T11:36:54.775Z,12.47
2022-09-27T11:39:33.935Z,14.33
2022-09-27T11:42:25.601Z,13.26
2022-09-27T11:45:45.415Z,11.45
2022-09-27T11:48:24.395Z,10.79
2022-09-27T11:51:17.136Z,10.52
2022-09-27T11:54:06.484Z,10.54
2022-09-27T11:56:49.440Z,10.58
2022-09-27T12:00:10.514Z,10.38
2022-09-27T12:03:21.269Z,9.94
2022-09-27T12:06:10.867Z,11.87
2022-09-27T12:08:58.474Z,13.43
2022-09-27T12:11:39.193Z,14.06
2022-09-27T12:14:23.575Z,14.48
2022-09-27T12:16:58.943Z,14.47
2022-09-27T12:19:36.931Z,14.32
2022-09-27T12:22:46.653Z,15.40
2022-09-27T12:25:21.046Z,16.15
2022-09-27T12:28:14.305Z,15.42
2022-09-27T12:30:52.849Z,15.30
2022-09-27T12:33:41.190Z,14.26
2022-09-27T12:36:19.367Z,13.33
2022-09-27T12:38:57.437Z,11.98
2022-09-27T12:41:28.488Z,12.99
2022-09-27T12:44:15.413Z,13.59
2022-09-27T12:47:07.295Z,15.84
2022-09-27T12:49:58.957Z,17.23
2022-09-27T12:52:40.153Z,17.12
2022-09-27T12:55:48.207Z,15.00
2022-09-27T12:58:43.568Z,15.31
2022-09-27T13:01:32.107Z,13.18
2022-09-27T13:04:37.186Z,11.75
2022-09-27T13:07:36.286Z,11.54
2022-09-27T13:10:36.477Z,11.41
2022-09-27T13:13:17.905Z,11.07
2022-09-27T13:24:41.860Z,10.63
2022-09-27T13:27:42.643Z,10.90
2022-09-27T13:30:46.228Z,10.97
2022-09-27T13:33:41.614Z,10.96
2022-09-27T13:36:29.581Z,11.33
2022-09-27T13:39:23.181Z,11.89
2022-09-27T13:42:31.715Z,12.37
2022-09-27T13:45:21.447Z,12.84
2022-09-27T13:47:54.901Z,12.57
2022-09-27T13:50:48.156Z,12.28
2022-09-27T13:53:29.128Z,12.09
2022-09-27T13:55:59.490Z,11.71
2022-09-27T13:58:44.914Z,11.58
2022-09-27T14:01:55.562Z,11.37
2022-09-27T14:04:41.964Z,11.29
2022-09-27T14:07:17.425Z,11.14
2022-09-27T14:09:52.598Z,11.13
2022-09-27T14:12:33.491Z,11.30
2022-09-27T14:15:05.882Z,11.49
2022-09-27T14:17:34.984Z,12.02
2022-09-27T14:20:04.307Z,11.85
2022-09-27T14:22:34.806Z,11.81
2022-09-27T14:25:18.378Z,11.75
2022-09-27T14:27:51.470Z,11.86
2022-09-27T14:30:30.135Z,11.49
2022-09-27T14:33:30.463Z,11.28
2022-09-27T14:36:34.242Z,11.13
2022-09-27T14:39:13.126Z,11.02
2022-09-27T14:41:42.070Z,10.95
2022-09-27T14:44:18.723Z,10.88
2022-09-27T14:46:48.082Z,10.65
2022-09-27T14:49:23.147Z,10.32
2022-09-27T14:51:57.187Z,10.08
2022-09-27T14:54:29.268Z,9.14
2022-09-27T14:57:00.312Z,7.78
2022-09-27T14:59:37.837Z,7.09
2022-09-27T15:02:18.689Z,7.15
2022-09-27T15:04:51.378Z,7.18
2022-09-27T15:07:22.649Z,7.21
2022-09-27T15:09:52.562Z,7.27
2022-09-27T15:12:26.887Z,7.39
2022-09-27T15:14:59.453Z,7.67
2022-09-27T15:17:42.199Z,7.97
2022-09-27T15:20:26.147Z,8.06
2022-09-27T15:22:55.938Z,8.08
2022-09-27T15:25:34.553Z,8.16
2022-09-27T15:28:06.474Z,8.14
2022-09-27T15:30:40.219Z,8.12
2022-09-27T15:33:23.643Z,8.01
2022-09-27T15:35:54.785Z,7.83
2022-09-27T15:38:31.197Z,7.94
2022-09-27T15:41:11.102Z,7.96
2022-09-27T15:43:45.566Z,8.12
2022-09-27T15:46:34.027Z,8.90
2022-09-27T15:49:34.635Z,10.22
2022-09-27T15:52:07.882Z,11.40
2022-09-27T15:54:37.172Z,11.13
2022-09-27T15:57:07.205Z,10.15
2022-09-27T15:59:37.781Z,9.20
2022-09-27T16:02:21.326Z,8.72
2022-09-27T16:04:49.893Z,8.37
2022-09-27T16:07:18.251Z,8.06
2022-09-27T16:09:49.587Z,7.79
2022-09-27T16:12:17.975Z,7.79
2022-09-27T16:14:46.265Z,7.82
2022-09-27T16:17:16.186Z,7.77
2022-09-27T16:19:47.737Z,7.56
2022-09-27T16:22:15.985Z,7.62
2022-09-27T16:24:44.442Z,7.60
2022-09-27T16:27:12.805Z,7.53
2022-09-27T16:29:44.179Z,7.62
2022-09-27T16:32:12.743Z,7.52
2022-09-27T16:34:42.544Z,7.65
2022-09-27T16:37:11.221Z,7.67
2022-09-27T16:39:40.263Z,7.59
2022-09-27T16:42:10.004Z,7.49
2022-09-27T16:44:38.260Z,7.41
2022-09-27T16:47:07.540Z,7.35
2022-09-27T16:49:53.501Z,7.33
2022-09-27T16:52:23.186Z,7.31
2022-09-27T16:54:51.659Z,7.37
2022-09-27T16:57:19.922Z,7.34
2022-09-27T16:59:49.013Z,7.42
2022-09-27T17:02:18.180Z,7.43
2022-09-27T17:04:46.546Z,7.40
2022-09-27T17:07:15.052Z,7.32
2022-09-27T17:09:45.070Z,7.15
2022-09-27T17:12:14.565Z,7.19
2022-09-27T17:14:42.922Z,7.12
2022-09-27T17:17:11.576Z,7.26
2022-09-27T17:19:40.002Z,7.28
2022-09-27T17:22:09.340Z,7.35
2022-09-27T17:24:37.677Z,7.43
2022-09-27T17:27:07.525Z,7.41
2022-09-27T17:29:35.943Z,7.31
2022-09-27T17:32:04.305Z,7.23
2022-09-27T17:34:32.816Z,7.21
2022-09-27T17:37:01.240Z,7.18
2022-09-27T17:39:29.642Z,7.13
2022-09-27T17:41:59.777Z,6.97
2022-09-27T17:44:29.481Z,7.01
2022-09-27T17:47:11.833Z,6.95
2022-09-27T17:49:57.842Z,6.98
2022-09-27T17:52:26.904Z,6.90
2022-09-27T17:54:57.470Z,6.95
2022-09-27T17:57:26.088Z,7.10
2022-09-27T17:59:57.786Z,7.04
2022-09-27T18:02:26.400Z,7.04
2022-09-27T18:04:54.827Z,7.04
2022-09-27T18:07:23.345Z,7.07
2022-09-27T18:09:52.082Z,7.14
2022-09-27T18:12:20.459Z,7.20
2022-09-27T18:14:49.232Z,7.28
2022-09-27T18:17:19.240Z,7.33
2022-09-27T18:19:47.437Z,7.30
2022-09-27T18:22:15.721Z,7.31
2022-09-27T18:24:43.900Z,7.41
2022-09-27T18:27:15.844Z,7.32
2022-09-27T18:29:46.740Z,7.26
2022-09-27T18:32:14.968Z,7.27
2022-09-27T18:34:44.525Z,7.34
2022-09-27T18:37:12.781Z,7.23
2022-09-27T18:39:41.225Z,7.30
2022-09-27T18:42:10.018Z,7.18
2022-09-27T18:44:39.180Z,7.08
2022-09-27T18:47:07.738Z,7.02
2022-09-27T18:49:36.162Z,7.06
2022-09-27T18:52:05.939Z,6.89
2022-09-27T18:54:35.237Z,6.97
2022-09-27T18:57:04.210Z,6.93
2022-09-27T18:59:34.363Z,6.88
2022-09-27T19:02:02.843Z,6.89
2022-09-27T19:04:31.272Z,6.82
2022-09-27T19:06:59.907Z,6.81
2022-09-27T19:09:29.609Z,6.75
2022-09-27T19:11:58.059Z,6.76
2022-09-27T19:14:26.898Z,6.77
2022-09-27T19:16:55.238Z,6.91
2022-09-27T19:19:24.230Z,7.00
2022-09-27T19:21:52.728Z,7.01
2022-09-27T19:24:21.413Z,6.95
2022-09-27T19:26:53.716Z,6.92
2022-09-27T19:29:22.078Z,6.84
2022-09-27T19:31:51.012Z,6.82
2022-09-27T19:34:19.489Z,6.86
2022-09-27T19:36:47.962Z,6.84
2022-09-27T19:39:16.433Z,6.83
2022-09-27T19:41:45.805Z,6.79
2022-09-27T19:44:15.513Z,6.80
2022-09-27T19:46:45.216Z,6.80
2022-09-27T19:49:13.613Z,6.86
2022-09-27T19:51:41.913Z,6.75
2022-09-27T19:54:12.871Z,6.77
2022-09-27T19:56:41.232Z,6.77
2022-09-27T19:59:09.592Z,6.81
2022-09-27T20:01:41.085Z,6.77
2022-09-27T20:04:09.450Z,6.85
2022-09-27T20:06:37.868Z,6.82
2022-09-27T20:09:06.501Z,6.89
2022-09-27T20:11:34.907Z,6.91
2022-09-27T20:14:03.511Z,6.93
2022-09-27T20:16:34.043Z,6.98
2022-09-27T20:19:05.019Z,7.00
2022-09-27T20:21:34.244Z,7.10
2022-09-27T20:24:05.632Z,7.14
2022-09-27T20:26:36.555Z,7.12
2022-09-27T20:29:07.591Z,7.16
2022-09-27T20:31:41.227Z,7.07
2022-09-27T20:34:20.444Z,7.04
2022-09-27T20:36:50.011Z,7.15
2022-09-27T20:39:18.795Z,6.96
2022-09-27T20:41:48.115Z,6.96
2022-09-27T20:44:19.447Z,7.04
2022-09-27T20:46:51.132Z,7.00
2022-09-27T20:49:21.022Z,7.07
2022-09-27T20:51:51.158Z,6.93
2022-09-27T20:54:19.768Z,6.96
2022-09-27T20:56:49.849Z,6.88
2022-09-27T20:59:20.839Z,6.88
2022-09-27T21:01:52.399Z,6.98
2022-09-27T21:04:23.457Z,6.97
2022-09-27T21:06:52.926Z,7.01
2022-09-27T21:09:21.186Z,6.87
2022-09-27T21:11:51.729Z,6.87
2022-09-27T21:14:20.387Z,6.88
2022-09-27T21:16:49.042Z,6.89
2022-09-27T21:19:17.689Z,6.86
2022-09-27T21:21:47.348Z,6.85
2022-09-27T21:24:15.761Z,6.85
2022-09-27T21:26:44.905Z,6.78
2022-09-27T21:29:15.225Z,6.66
2022-09-27T21:31:43.841Z,6.60
2022-09-27T21:34:12.115Z,6.57
2022-09-27T21:36:40.706Z,6.53
2022-09-27T21:39:10.989Z,6.53
2022-09-27T21:41:39.871Z,6.44
2022-09-27T21:44:09.278Z,6.35
2022-09-27T21:46:41.858Z,6.23
2022-09-27T21:49:11.074Z,6.19
2022-09-27T21:51:41.793Z,6.14
2022-09-27T21:54:14.958Z,6.13
2022-09-27T21:56:44.781Z,6.04
2022-09-27T21:59:18.242Z,6.01
2022-09-27T22:01:47.834Z,6.06
2022-09-27T22:04:17.720Z,6.05
2022-09-27T22:06:45.980Z,6.05
2022-09-27T22:09:17.794Z,6.03
2022-09-27T22:11:47.740Z,6.03
2022-09-27T22:14:17.860Z,6.01
2022-09-27T22:16:46.224Z,5.99
2022-09-27T22:19:16.599Z,5.90
2022-09-27T22:21:44.993Z,5.89
2022-09-27T22:24:17.645Z,5.81
2022-09-27T22:26:49.914Z,5.74
2022-09-27T22:29:19.063Z,5.56
2022-09-27T22:31:47.624Z,5.35
2022-09-27T22:34:28.666Z,5.18
2022-09-27T22:36:59.013Z,5.06
2022-09-27T22:39:29.278Z,4.96
2022-09-27T22:41:57.544Z,4.82
2022-09-27T22:44:25.753Z,4.77
2022-09-27T22:46:54.019Z,4.71
2022-09-27T22:49:22.832Z,4.64
2022-09-27T22:51:51.498Z,4.58
2022-09-27T22:54:20.003Z,4.52
2022-09-27T22:56:57.109Z,4.49
2022-09-27T22:59:26.095Z,4.46
2022-09-27T23:01:54.652Z,4.45
2022-09-27T23:04:22.899Z,4.42
2022-09-27T23:06:51.318Z,4.38
2022-09-27T23:09:19.644Z,4.35
2022-09-27T23:11:49.422Z,4.35
2022-09-27T23:14:17.698Z,4.38
2022-09-27T23:16:45.981Z,4.49
2022-09-27T23:19:16.226Z,4.57
2022-09-27T23:21:44.620Z,4.62
2022-09-27T23:24:13.370Z,4.73
2022-09-27T23:26:41.958Z,4.88
2022-09-27T23:29:11.515Z,4.91
2022-09-27T23:31:39.810Z,4.91
2022-09-27T23:34:08.045Z,4.86
2022-09-27T23:36:36.244Z,4.87
2022-09-27T23:39:04.549Z,4.86
2022-09-27T23:41:32.752Z,4.86
2022-09-27T23:44:01.088Z,4.92
2022-09-27T23:46:31.357Z,4.95
2022-09-27T23:48:59.621Z,5.00
2022-09-27T23:51:27.954Z,5.04
2022-09-27T23:53:57.110Z,5.10
2022-09-27T23:56:25.923Z,5.18
2022-09-27T23:58:54.164Z,5.28
